createdAt,value
2018-11-04T00:00:46.666Z,0
2018-11-04T00:01:56.753Z,0
2018-11-04T00:03:06.647Z,0
2018-11-04T00:04:16.536Z,0
2018-11-04T00:05:26.417Z,0
2018-11-04T00:06:36.318Z,0
2018-11-04T00:07:46.559Z,0
2018-11-04T00:08:56.797Z,0
2018-11-04T00:10:06.677Z,0
2018-11-04T00:11:16.015Z,0
2018-11-04T00:12:25.395Z,0
2018-11-04T00:13:35.289Z,0
2018-11-04T00:14:44.911Z,0
2018-11-04T00:15:54.831Z,0
2018-11-04T00:17:04.440Z,0
2018-11-04T00:18:14.320Z,0
2018-11-04T00:19:23.932Z,0
2018-11-04T00:20:34.092Z,0
2018-11-04T00:21:44.016Z,0
2018-11-04T00:22:54.187Z,0
2018-11-04T00:24:04.395Z,0
2018-11-04T00:25:14.309Z,0
2018-11-04T00:26:24.188Z,0
2018-11-04T00:27:33.522Z,0
2018-11-04T00:28:42.920Z,0
2018-11-04T00:29:52.946Z,0
2018-11-04T00:31:03.282Z,0
2018-11-04T00:32:13.436Z,0
2018-11-04T00:33:23.593Z,0
2018-11-04T00:34:32.927Z,0
2018-11-04T00:35:42.561Z,0
2018-11-04T00:36:52.448Z,0
2018-11-04T00:38:02.331Z,0
2018-11-04T00:39:11.946Z,0
2018-11-04T00:40:21.288Z,0
2018-11-04T00:41:31.223Z,0
2018-11-04T00:42:41.111Z,0
2018-11-04T00:43:50.990Z,0
2018-11-04T00:45:01.152Z,0
2018-11-04T00:46:11.359Z,0
2018-11-04T00:47:21.287Z,0
2018-11-04T00:48:31.849Z,0
2018-11-04T00:49:42.116Z,0
2018-11-04T00:50:52.278Z,0
2018-11-04T00:52:01.904Z,0
2018-11-04T00:53:11.521Z,0
2018-11-04T00:54:21.681Z,0
2018-11-04T00:55:31.836Z,0
2018-11-04T00:56:41.715Z,0
2018-11-04T00:57:51.875Z,0
2018-11-04T00:59:01.213Z,0
2018-11-04T01:00:11.377Z,0
2018-11-04T01:01:21.272Z,0
2018-11-04T01:02:31.160Z,0
2018-11-04T01:03:41.319Z,0
2018-11-04T01:04:50.680Z,0
2018-11-04T01:06:00.842Z,0
2018-11-04T01:07:10.467Z,0
2018-11-04T01:08:20.409Z,0
2018-11-04T01:09:30.024Z,0
2018-11-04T01:10:40.178Z,0
2018-11-04T01:11:50.513Z,0
2018-11-04T01:13:00.410Z,0
2018-11-04T01:14:10.020Z,0
2018-11-04T01:15:19.630Z,0
2018-11-04T01:16:29.573Z,0
2018-11-04T01:17:38.627Z,0
2018-11-04T01:18:48.233Z,0
2018-11-04T01:19:58.164Z,0
2018-11-04T01:21:07.972Z,0
2018-11-04T01:22:17.312Z,0
2018-11-04T01:23:27.205Z,0
2018-11-04T01:24:37.365Z,0
2018-11-04T01:25:47.082Z,0
2018-11-04T01:26:56.963Z,0
2018-11-04T01:28:07.181Z,0
2018-11-04T01:29:16.983Z,0
2018-11-04T01:30:27.523Z,0
2018-11-04T01:31:38.061Z,0
2018-11-04T01:32:48.233Z,0
2018-11-04T01:33:57.890Z,0
2018-11-04T01:35:07.776Z,0
2018-11-04T01:36:17.392Z,0
2018-11-04T01:37:27.278Z,0
2018-11-04T01:38:37.161Z,0
2018-11-04T01:39:47.095Z,0
2018-11-04T01:40:57.025Z,0
2018-11-04T01:42:07.179Z,0
2018-11-04T01:43:16.835Z,0
2018-11-04T01:44:26.445Z,0
2018-11-04T01:45:36.051Z,0
2018-11-04T01:46:45.381Z,0
2018-11-04T01:47:55.260Z,0
2018-11-04T01:49:05.146Z,0
2018-11-04T01:50:15.030Z,0
2018-11-04T01:51:24.913Z,0
2018-11-04T01:52:34.518Z,0
2018-11-04T01:53:44.412Z,0
2018-11-04T01:54:54.035Z,0
2018-11-04T01:56:03.918Z,0
2018-11-04T01:57:14.116Z,0
2018-11-04T01:58:24.272Z,0
2018-11-04T01:59:33.877Z,0
2018-11-04T02:00:44.052Z,0
2018-11-04T02:01:53.948Z,0
2018-11-04T02:03:03.292Z,0
2018-11-04T02:04:13.459Z,0
2018-11-04T02:05:23.620Z,0
2018-11-04T02:06:33.227Z,0
2018-11-04T02:07:43.404Z,0
2018-11-04T02:08:53.016Z,0
2018-11-04T02:10:02.354Z,0
2018-11-04T02:11:12.235Z,0
2018-11-04T02:12:22.385Z,0
2018-11-04T02:13:32.266Z,0
2018-11-04T02:14:42.165Z,0
2018-11-04T02:15:52.045Z,0
2018-11-04T02:17:01.931Z,0
2018-11-04T02:18:11.539Z,0
2018-11-04T02:19:21.431Z,0
2018-11-04T02:20:31.095Z,0
2018-11-04T02:21:40.977Z,0
2018-11-04T02:22:51.135Z,0
2018-11-04T02:24:01.298Z,0
2018-11-04T02:25:11.185Z,0
2018-11-04T02:26:21.396Z,0
2018-11-04T02:27:31.293Z,0
2018-11-04T02:28:40.893Z,0
2018-11-04T02:29:50.499Z,0
2018-11-04T02:31:00.109Z,0
2018-11-04T02:32:09.751Z,0
2018-11-04T02:33:19.354Z,0
2018-11-04T02:34:28.980Z,0
2018-11-04T02:35:38.871Z,0
2018-11-04T02:36:48.758Z,0
2018-11-04T02:37:58.923Z,0
2018-11-04T02:39:08.260Z,0
2018-11-04T02:40:17.885Z,0
2018-11-04T02:41:27.492Z,0
2018-11-04T02:42:37.382Z,0
2018-11-04T02:43:47.042Z,0
2018-11-04T02:44:56.371Z,0
2018-11-04T02:46:06.271Z,0
2018-11-04T02:47:16.168Z,0
2018-11-04T02:48:26.324Z,0
2018-11-04T02:49:35.937Z,0
2018-11-04T02:50:46.117Z,0
2018-11-04T02:51:56.006Z,0
2018-11-04T02:53:05.609Z,0
2018-11-04T02:54:15.487Z,0
2018-11-04T02:55:25.676Z,0
2018-11-04T02:56:35.565Z,0
2018-11-04T02:57:45.717Z,0
2018-11-04T02:58:55.879Z,0
2018-11-04T03:00:05.765Z,0
2018-11-04T03:01:15.647Z,0
2018-11-04T03:02:25.804Z,0
2018-11-04T03:03:35.696Z,0
2018-11-04T03:04:45.310Z,0
2018-11-04T03:05:54.932Z,0
2018-11-04T03:07:04.823Z,0
2018-11-04T03:08:14.433Z,0
2018-11-04T03:09:24.051Z,0
2018-11-04T03:10:34.247Z,0
2018-11-04T03:11:44.137Z,0
2018-11-04T03:12:53.198Z,0
2018-11-04T03:14:03.084Z,0
2018-11-04T03:15:12.972Z,0
2018-11-04T03:16:22.870Z,0
2018-11-04T03:17:33.026Z,0
2018-11-04T03:18:42.693Z,0
2018-11-04T03:19:52.052Z,0
2018-11-04T03:21:02.235Z,0
2018-11-04T03:22:11.855Z,0
2018-11-04T03:23:22.019Z,0
2018-11-04T03:24:31.839Z,0
2018-11-04T03:25:42.131Z,0
2018-11-04T03:26:52.291Z,0
2018-11-04T03:28:02.468Z,0
2018-11-04T03:29:11.802Z,0
2018-11-04T03:30:21.960Z,0
2018-11-04T03:31:31.571Z,0
2018-11-04T03:32:41.767Z,0
2018-11-04T03:33:51.944Z,0
2018-11-04T03:35:02.124Z,0
2018-11-04T03:36:12.010Z,0
2018-11-04T03:37:21.624Z,0
2018-11-04T03:38:31.783Z,0
2018-11-04T03:39:41.935Z,0
2018-11-04T03:40:51.276Z,0
2018-11-04T03:42:00.890Z,0
2018-11-04T03:43:10.520Z,0
2018-11-04T03:44:20.418Z,0
2018-11-04T03:45:30.302Z,0
2018-11-04T03:46:39.909Z,0
2018-11-04T03:47:48.744Z,0
2018-11-04T03:48:58.630Z,0
2018-11-04T03:50:07.968Z,0
2018-11-04T03:51:17.858Z,0
2018-11-04T03:52:27.741Z,0
2018-11-04T03:53:37.632Z,0
2018-11-04T03:54:47.794Z,0
2018-11-04T03:55:57.672Z,0
2018-11-04T03:57:07.283Z,0
2018-11-04T03:58:16.898Z,0
2018-11-04T03:59:26.545Z,0
2018-11-04T04:00:36.157Z,0
2018-11-04T04:01:45.776Z,0
2018-11-04T04:02:55.665Z,0
2018-11-04T04:04:04.996Z,0
2018-11-04T04:05:14.882Z,0
2018-11-04T04:06:24.498Z,0
2018-11-04T04:07:34.649Z,0
2018-11-04T04:08:44.262Z,0
2018-11-04T04:09:54.146Z,0
2018-11-04T04:11:03.759Z,0
2018-11-04T04:12:13.645Z,0
2018-11-04T04:13:23.269Z,0
2018-11-04T04:14:32.874Z,0
2018-11-04T04:15:42.776Z,0
2018-11-04T04:16:52.950Z,0
2018-11-04T04:18:02.590Z,0
2018-11-04T04:19:12.203Z,0
2018-11-04T04:20:21.816Z,0
2018-11-04T04:21:31.426Z,0
2018-11-04T04:22:41.581Z,0
2018-11-04T04:23:51.467Z,0
2018-11-04T04:25:01.357Z,0
2018-11-04T04:26:11.524Z,0
2018-11-04T04:27:21.413Z,0
2018-11-04T04:28:31.359Z,0
2018-11-04T04:29:41.240Z,0
2018-11-04T04:30:50.848Z,0
2018-11-04T04:32:01.026Z,0
2018-11-04T04:33:10.640Z,0
2018-11-04T04:34:20.249Z,0
2018-11-04T04:35:30.428Z,0
2018-11-04T04:36:40.043Z,0
2018-11-04T04:37:50.250Z,0
2018-11-04T04:39:00.169Z,0
2018-11-04T04:40:09.792Z,0
2018-11-04T04:41:19.948Z,0
2018-11-04T04:42:30.107Z,0
2018-11-04T04:43:39.444Z,0
2018-11-04T04:44:49.062Z,0
2018-11-04T04:45:58.940Z,0
2018-11-04T04:47:08.818Z,0
2018-11-04T04:48:18.977Z,0
2018-11-04T04:49:28.585Z,0
2018-11-04T04:50:38.201Z,0
2018-11-04T04:51:47.811Z,0
2018-11-04T04:52:57.690Z,0
2018-11-04T04:54:07.862Z,0
2018-11-04T04:55:18.088Z,0
2018-11-04T04:56:28.246Z,0
2018-11-04T04:57:38.437Z,0
2018-11-04T04:58:48.329Z,0
2018-11-04T04:59:58.486Z,0
2018-11-04T05:01:08.371Z,0
2018-11-04T05:02:18.267Z,0
2018-11-04T05:03:28.160Z,0
2018-11-04T05:04:37.767Z,0
2018-11-04T05:05:47.388Z,0
2018-11-04T05:06:57.272Z,0
2018-11-04T05:08:07.150Z,0
2018-11-04T05:09:16.797Z,0
2018-11-04T05:10:26.968Z,0
2018-11-04T05:11:37.139Z,0
2018-11-04T05:12:46.482Z,0
2018-11-04T05:13:56.367Z,0
2018-11-04T05:15:06.327Z,0
2018-11-04T05:16:16.232Z,0
2018-11-04T05:17:26.125Z,0
2018-11-04T05:18:36.008Z,0
2018-11-04T05:19:45.893Z,0
2018-11-04T05:20:56.042Z,0
2018-11-04T05:22:05.945Z,0
2018-11-04T05:23:16.093Z,0
2018-11-04T05:24:25.433Z,0
2018-11-04T05:25:35.050Z,0
2018-11-04T05:26:44.946Z,0
2018-11-04T05:27:54.837Z,0
2018-11-04T05:29:04.999Z,0
2018-11-04T05:30:15.159Z,0
2018-11-04T05:31:25.320Z,0
2018-11-04T05:32:34.926Z,0
2018-11-04T05:33:44.524Z,0
2018-11-04T05:34:54.407Z,0
2018-11-04T05:36:04.574Z,0
2018-11-04T05:37:14.194Z,0
2018-11-04T05:38:24.314Z,0
2018-11-04T05:39:34.494Z,0
2018-11-04T05:40:44.377Z,0
2018-11-04T05:41:54.261Z,0
2018-11-04T05:43:04.142Z,0
2018-11-04T05:44:14.297Z,0
2018-11-04T05:45:24.180Z,0
2018-11-04T05:46:34.064Z,0
2018-11-04T05:47:43.674Z,0
2018-11-04T05:48:53.565Z,0
2018-11-04T05:50:03.452Z,0
2018-11-04T05:51:13.335Z,0
2018-11-04T05:52:23.487Z,0
2018-11-04T05:53:32.897Z,0
2018-11-04T05:54:42.775Z,4
2018-11-04T05:55:52.928Z,4
2018-11-04T05:57:03.100Z,0
2018-11-04T05:58:13.255Z,4
2018-11-04T05:59:23.136Z,4
2018-11-04T06:00:33.023Z,4
2018-11-04T06:01:42.358Z,8
2018-11-04T06:02:51.957Z,8
2018-11-04T06:04:01.296Z,8
2018-11-04T06:05:10.908Z,8
2018-11-04T06:06:20.247Z,16
2018-11-04T06:07:30.134Z,16
2018-11-04T06:08:40.025Z,20
2018-11-04T06:09:49.905Z,24
2018-11-04T06:10:59.511Z,32
2018-11-04T06:12:09.126Z,32
2018-11-04T06:13:19.005Z,40
2018-11-04T06:14:28.890Z,48
2018-11-04T06:15:38.769Z,56
2018-11-04T06:16:48.925Z,68
2018-11-04T06:17:59.080Z,72
2018-11-04T06:19:09.018Z,88
2018-11-04T06:20:18.631Z,100
2018-11-04T06:21:28.249Z,112
2018-11-04T06:22:38.404Z,124
2018-11-04T06:23:48.289Z,144
2018-11-04T06:24:57.890Z,160
2018-11-04T06:26:08.052Z,176
2018-11-04T06:27:17.666Z,192
2018-11-04T06:28:27.824Z,208
2018-11-04T06:29:37.439Z,224
2018-11-04T06:30:47.596Z,244
2018-11-04T06:31:57.205Z,264
2018-11-04T06:33:07.387Z,280
2018-11-04T06:34:17.538Z,300
2018-11-04T06:35:27.432Z,336
2018-11-04T06:36:37.308Z,344
2018-11-04T06:37:47.199Z,372
2018-11-04T06:38:56.812Z,396
2018-11-04T06:40:06.715Z,420
2018-11-04T06:41:16.634Z,436
2018-11-04T06:42:26.486Z,456
2018-11-04T06:43:36.128Z,484
2018-11-04T06:44:46.278Z,520
2018-11-04T06:45:55.890Z,536
2018-11-04T06:47:05.703Z,548
2018-11-04T06:48:15.409Z,576
2018-11-04T06:49:25.573Z,584
2018-11-04T06:50:35.740Z,620
2018-11-04T06:51:45.081Z,644
2018-11-04T06:52:54.962Z,668
2018-11-04T06:54:05.116Z,688
2018-11-04T06:55:14.174Z,716
2018-11-04T06:56:24.059Z,720
2018-11-04T06:57:34.215Z,752
2018-11-04T06:58:44.096Z,764
2018-11-04T06:59:54.185Z,800
2018-11-04T07:01:04.243Z,816
2018-11-04T07:02:13.864Z,836
2018-11-04T07:03:23.808Z,856
2018-11-04T07:04:32.869Z,888
2018-11-04T07:05:42.754Z,904
2018-11-04T07:06:52.901Z,920
2018-11-04T07:08:03.056Z,952
2018-11-04T07:09:13.299Z,956
2018-11-04T07:10:23.177Z,964
2018-11-04T07:11:32.797Z,980
2018-11-04T07:12:42.950Z,1016
2018-11-04T07:13:52.835Z,1032
2018-11-04T07:15:02.168Z,1060
2018-11-04T07:16:11.782Z,1060
2018-11-04T07:17:21.660Z,1092
2018-11-04T07:18:31.540Z,1124
2018-11-04T07:19:41.156Z,1156
2018-11-04T07:20:51.046Z,1168
2018-11-04T07:22:01.209Z,1176
2018-11-04T07:23:11.430Z,1208
2018-11-04T07:24:21.046Z,1224
2018-11-04T07:25:31.012Z,1256
2018-11-04T07:26:41.068Z,1284
2018-11-04T07:27:50.949Z,1300
2018-11-04T07:29:00.827Z,1312
2018-11-04T07:30:10.773Z,1340
2018-11-04T07:31:20.391Z,1356
2018-11-04T07:32:30.280Z,1356
2018-11-04T07:33:39.620Z,1384
2018-11-04T07:34:49.233Z,1404
2018-11-04T07:35:58.840Z,1436
2018-11-04T07:37:08.453Z,1452
2018-11-04T07:38:18.058Z,1480
2018-11-04T07:39:27.662Z,1508
2018-11-04T07:40:37.549Z,1548
2018-11-04T07:41:46.657Z,1556
2018-11-04T07:42:56.819Z,1588
2018-11-04T07:44:07.109Z,1624
2018-11-04T07:45:17.112Z,1640
2018-11-04T07:46:26.994Z,1656
2018-11-04T07:47:36.928Z,1688
2018-11-04T07:48:46.544Z,1712
2018-11-04T07:49:56.154Z,1768
2018-11-04T07:51:06.044Z,1788
2018-11-04T07:52:15.927Z,1852
2018-11-04T07:53:25.806Z,1876
2018-11-04T07:54:35.707Z,1916
2018-11-04T07:55:45.654Z,1968
2018-11-04T07:56:55.339Z,2004
2018-11-04T07:58:05.685Z,2108
2018-11-04T07:59:15.859Z,2184
2018-11-04T08:00:26.032Z,2276
2018-11-04T08:01:35.639Z,2400
2018-11-04T08:02:45.797Z,2544
2018-11-04T08:03:55.753Z,2668
2018-11-04T08:05:05.495Z,2756
2018-11-04T08:06:15.102Z,2840
2018-11-04T08:07:24.716Z,2844
2018-11-04T08:08:34.324Z,2812
2018-11-04T08:09:44.479Z,2848
2018-11-04T08:10:54.363Z,2796
2018-11-04T08:12:03.995Z,2736
2018-11-04T08:13:13.604Z,2668
2018-11-04T08:14:23.495Z,2644
2018-11-04T08:15:33.102Z,2732
2018-11-04T08:16:43.257Z,2840
2018-11-04T08:17:53.409Z,2904
2018-11-04T08:19:03.560Z,3008
2018-11-04T08:20:13.457Z,3108
2018-11-04T08:21:23.538Z,3184
2018-11-04T08:22:33.403Z,3236
2018-11-04T08:23:43.285Z,3304
2018-11-04T08:24:52.896Z,3292
2018-11-04T08:26:02.781Z,3312
2018-11-04T08:27:12.397Z,3336
2018-11-04T08:28:22.059Z,3324
2018-11-04T08:29:32.227Z,3376
2018-11-04T08:30:42.405Z,3324
2018-11-04T08:31:52.013Z,3364
2018-11-04T08:33:01.080Z,3380
2018-11-04T08:34:11.245Z,3392
2018-11-04T08:35:21.405Z,3376
2018-11-04T08:36:31.282Z,3348
2018-11-04T08:37:41.452Z,3356
2018-11-04T08:38:51.608Z,3344
2018-11-04T08:40:02.259Z,3384
2018-11-04T08:41:11.502Z,3452
2018-11-04T08:42:21.382Z,3532
2018-11-04T08:43:30.734Z,3640
2018-11-04T08:44:40.350Z,3692
2018-11-04T08:45:50.276Z,3748
2018-11-04T08:47:00.889Z,3860
2018-11-04T08:48:10.774Z,3988
2018-11-04T08:49:20.944Z,4132
2018-11-04T08:50:30.008Z,4360
2018-11-04T08:51:39.938Z,4552
2018-11-04T08:52:50.295Z,4620
2018-11-04T08:54:00.186Z,4604
2018-11-04T08:55:09.546Z,4600
2018-11-04T08:56:19.432Z,4648
2018-11-04T08:57:29.604Z,4688
2018-11-04T08:58:39.373Z,4736
2018-11-04T08:59:49.060Z,4792
2018-11-04T09:00:58.957Z,4876
2018-11-04T09:02:08.851Z,4948
2018-11-04T09:03:18.470Z,5024
2018-11-04T09:04:28.099Z,5056
2018-11-04T09:05:37.713Z,5064
2018-11-04T09:06:47.414Z,5088
2018-11-04T09:07:57.582Z,5072
2018-11-04T09:09:07.251Z,4988
2018-11-04T09:10:17.141Z,4956
2018-11-04T09:11:27.026Z,4980
2018-11-04T09:12:36.910Z,4992
2018-11-04T09:13:46.525Z,4992
2018-11-04T09:14:56.416Z,5012
2018-11-04T09:16:05.481Z,5012
2018-11-04T09:17:15.656Z,5036
2018-11-04T09:18:25.549Z,5060
2018-11-04T09:19:35.701Z,5032
2018-11-04T09:20:45.313Z,5028
2018-11-04T09:21:55.670Z,5004
2018-11-04T09:23:04.894Z,5012
2018-11-04T09:24:14.777Z,5048
2018-11-04T09:25:24.949Z,5096
2018-11-04T09:26:34.610Z,5116
2018-11-04T09:27:44.233Z,5092
2018-11-04T09:28:54.421Z,5104
2018-11-04T09:30:03.771Z,5156
2018-11-04T09:31:13.128Z,5252
2018-11-04T09:32:22.467Z,5404
2018-11-04T09:33:31.810Z,5476
2018-11-04T09:34:41.549Z,5488
2018-11-04T09:35:53.371Z,5520
2018-11-04T09:37:02.495Z,5604
2018-11-04T09:38:12.129Z,5648
2018-11-04T09:39:22.028Z,5632
2018-11-04T09:40:31.927Z,5540
2018-11-04T09:41:41.272Z,5444
2018-11-04T09:42:50.623Z,5408
2018-11-04T09:43:59.977Z,5404
2018-11-04T09:45:09.348Z,5440
2018-11-04T09:46:19.299Z,5456
2018-11-04T09:47:28.049Z,5532
2018-11-04T09:48:37.723Z,5576
2018-11-04T09:49:47.417Z,5576
2018-11-04T09:50:57.045Z,5544
2018-11-04T09:52:06.118Z,5540
2018-11-04T09:53:15.736Z,5596
2018-11-04T09:54:25.079Z,5676
2018-11-04T09:55:34.968Z,5720
2018-11-04T09:56:44.593Z,5684
2018-11-04T09:57:54.319Z,5628
2018-11-04T09:59:04.218Z,5676
2018-11-04T10:00:14.382Z,5812
2018-11-04T10:01:24.004Z,5936
2018-11-04T10:02:34.168Z,6112
2018-11-04T10:03:43.797Z,6220
2018-11-04T10:04:53.154Z,6192
2018-11-04T10:06:02.771Z,6152
2018-11-04T10:07:12.719Z,6132
2018-11-04T10:08:22.254Z,6140
2018-11-04T10:09:31.595Z,6164
2018-11-04T10:10:40.668Z,6160
2018-11-04T10:11:50.842Z,6136
2018-11-04T10:13:00.509Z,6052
2018-11-04T10:14:10.398Z,6028
2018-11-04T10:15:20.333Z,6088
2018-11-04T10:16:30.494Z,6168
2018-11-04T10:17:40.666Z,6156
2018-11-04T10:18:51.423Z,6028
2018-11-04T10:20:03.522Z,6000
2018-11-04T10:21:16.775Z,6008
2018-11-04T10:22:26.383Z,6076
2018-11-04T10:23:36.268Z,6048
2018-11-04T10:24:45.608Z,6172
2018-11-04T10:25:55.506Z,6268
2018-11-04T10:27:05.511Z,6388
2018-11-04T10:28:14.856Z,6428
2018-11-04T10:29:24.750Z,6520
2018-11-04T10:30:35.142Z,6648
2018-11-04T10:31:45.036Z,6792
2018-11-04T10:32:54.922Z,6928
2018-11-04T10:34:04.813Z,6888
2018-11-04T10:35:14.978Z,6848
2018-11-04T10:36:25.335Z,7012
2018-11-04T10:37:35.315Z,7152
2018-11-04T10:38:45.474Z,7208
2018-11-04T10:39:55.367Z,7112
2018-11-04T10:41:05.250Z,6976
2018-11-04T10:42:15.135Z,6760
2018-11-04T10:43:25.391Z,6660
2018-11-04T10:44:35.325Z,6528
2018-11-04T10:45:44.674Z,6592
2018-11-04T10:46:54.569Z,6736
2018-11-04T10:48:04.182Z,6952
2018-11-04T10:49:13.566Z,7152
2018-11-04T10:50:23.189Z,7232
2018-11-04T10:51:33.076Z,7164
2018-11-04T10:52:42.979Z,7000
2018-11-04T10:53:53.141Z,7012
2018-11-04T10:55:03.304Z,6796
2018-11-04T10:56:12.374Z,6748
2018-11-04T10:57:21.998Z,6608
2018-11-04T10:58:32.166Z,6608
2018-11-04T10:59:42.068Z,6632
2018-11-04T11:00:52.241Z,6668
2018-11-04T11:02:02.136Z,6748
2018-11-04T11:03:11.759Z,6740
2018-11-04T11:04:21.116Z,6720
2018-11-04T11:05:31.044Z,6588
2018-11-04T11:06:41.206Z,6348
2018-11-04T11:07:50.551Z,6496
2018-11-04T11:09:00.179Z,6568
2018-11-04T11:10:09.531Z,6468
2018-11-04T11:11:19.496Z,6580
2018-11-04T11:12:28.837Z,6568
2018-11-04T11:13:38.456Z,6532
2018-11-04T11:14:48.376Z,6296
2018-11-04T11:15:58.266Z,6244
2018-11-04T11:17:08.158Z,6632
2018-11-04T11:18:18.050Z,6644
2018-11-04T11:19:27.940Z,6836
2018-11-04T11:20:38.108Z,6364
2018-11-04T11:21:48.294Z,6300
2018-11-04T11:22:59.679Z,6232
2018-11-04T11:24:09.929Z,6236
2018-11-04T11:25:19.829Z,6344
2018-11-04T11:26:30.014Z,6200
2018-11-04T11:27:39.631Z,6156
2018-11-04T11:28:49.580Z,6496
2018-11-04T11:29:59.617Z,6348
2018-11-04T11:31:09.289Z,6240
2018-11-04T11:32:19.179Z,6148
2018-11-04T11:33:29.075Z,5908
2018-11-04T11:34:38.438Z,5900
2018-11-04T11:35:48.346Z,5948
2018-11-04T11:36:58.014Z,5928
2018-11-04T11:38:08.095Z,5996
2018-11-04T11:39:17.754Z,6236
2018-11-04T11:40:27.379Z,6484
2018-11-04T11:41:37.547Z,6612
2018-11-04T11:42:47.441Z,6716
2018-11-04T11:43:57.605Z,6968
2018-11-04T11:45:08.036Z,7592
2018-11-04T11:46:17.440Z,7664
2018-11-04T11:47:27.346Z,7412
2018-11-04T11:48:37.549Z,7068
2018-11-04T11:49:47.438Z,6920
2018-11-04T11:50:57.611Z,6836
2018-11-04T11:52:06.958Z,7016
2018-11-04T11:53:16.568Z,7356
2018-11-04T11:54:26.452Z,7708
2018-11-04T11:55:35.791Z,7624
2018-11-04T11:56:45.969Z,7576
2018-11-04T11:57:56.140Z,7584
2018-11-04T11:59:05.528Z,7468
2018-11-04T12:00:15.230Z,7432
2018-11-04T12:01:24.584Z,7280
2018-11-04T12:02:33.937Z,7008
2018-11-04T12:03:43.823Z,7060
2018-11-04T12:04:53.718Z,6636
2018-11-04T12:06:03.635Z,6736
2018-11-04T12:07:13.635Z,7260
2018-11-04T12:08:23.299Z,7172
2018-11-04T12:09:33.192Z,7292
2018-11-04T12:10:43.082Z,7540
2018-11-04T12:11:52.703Z,7508
2018-11-04T12:13:02.867Z,7036
2018-11-04T12:14:12.487Z,7048
2018-11-04T12:15:22.096Z,6984
2018-11-04T12:16:31.438Z,6928
2018-11-04T12:17:41.549Z,6780
2018-11-04T12:18:51.536Z,7148
2018-11-04T12:20:01.157Z,6824
2018-11-04T12:21:11.053Z,6860
2018-11-04T12:22:20.943Z,6740
2018-11-04T12:23:31.202Z,6556
2018-11-04T12:24:41.449Z,6032
2018-11-04T12:25:51.619Z,6024
2018-11-04T12:27:01.228Z,6020
2018-11-04T12:28:10.845Z,6204
2018-11-04T12:29:20.464Z,6128
2018-11-04T12:30:30.356Z,5900
2018-11-04T12:31:40.248Z,6112
2018-11-04T12:32:50.137Z,5956
2018-11-04T12:34:00.301Z,6048
2018-11-04T12:35:09.165Z,5976
2018-11-04T12:36:18.894Z,6332
2018-11-04T12:37:29.063Z,6432
2018-11-04T12:38:38.687Z,6204
2018-11-04T12:39:48.863Z,6164
2018-11-04T12:40:58.764Z,5740
2018-11-04T12:42:08.932Z,5764
2018-11-04T12:43:18.546Z,5956
2018-11-04T12:44:28.174Z,6040
2018-11-04T12:45:38.390Z,6084
2018-11-04T12:46:48.288Z,6052
2018-11-04T12:47:58.182Z,5808
2018-11-04T12:49:08.085Z,5460
2018-11-04T12:50:17.985Z,5412
2018-11-04T12:51:27.329Z,5380
2018-11-04T12:52:37.221Z,5432
2018-11-04T12:53:46.570Z,5396
2018-11-04T12:54:56.197Z,5264
2018-11-04T12:56:06.139Z,5056
2018-11-04T12:57:16.314Z,4952
2018-11-04T12:58:25.660Z,4880
2018-11-04T12:59:35.292Z,4800
2018-11-04T13:00:45.491Z,4656
2018-11-04T13:01:55.524Z,4656
2018-11-04T13:03:05.577Z,4592
2018-11-04T13:04:15.461Z,4696
2018-11-04T13:05:25.664Z,4884
2018-11-04T13:06:35.825Z,5004
2018-11-04T13:07:45.734Z,4932
2018-11-04T13:08:55.636Z,4912
2018-11-04T13:10:05.749Z,4796
2018-11-04T13:11:15.536Z,4868
2018-11-04T13:12:25.441Z,4796
2018-11-04T13:13:35.338Z,4796
2018-11-04T13:14:45.229Z,4980
2018-11-04T13:15:54.572Z,5176
2018-11-04T13:17:04.732Z,5120
2018-11-04T13:18:14.624Z,5352
2018-11-04T13:19:24.236Z,5524
2018-11-04T13:20:34.418Z,5368
2018-11-04T13:21:44.319Z,5184
2018-11-04T13:22:53.939Z,5220
2018-11-04T13:24:03.285Z,5452
2018-11-04T13:25:13.182Z,5652
2018-11-04T13:26:22.815Z,5956
2018-11-04T13:27:32.990Z,6064
2018-11-04T13:28:42.633Z,5660
2018-11-04T13:29:52.247Z,5304
2018-11-04T13:31:01.590Z,5076
2018-11-04T13:32:11.518Z,4888
2018-11-04T13:33:21.137Z,4608
2018-11-04T13:34:31.308Z,4444
2018-11-04T13:35:41.193Z,4428
2018-11-04T13:36:51.361Z,4364
2018-11-04T13:38:00.719Z,4240
2018-11-04T13:39:10.368Z,4096
2018-11-04T13:40:19.408Z,3924
2018-11-04T13:41:29.303Z,3784
2018-11-04T13:42:38.927Z,3672
2018-11-04T13:43:49.103Z,3600
2018-11-04T13:44:58.735Z,3560
2018-11-04T13:46:08.629Z,3452
2018-11-04T13:47:18.524Z,3248
2018-11-04T13:48:28.416Z,3184
2018-11-04T13:49:38.643Z,3240
2018-11-04T13:50:48.535Z,3220
2018-11-04T13:51:58.715Z,3120
2018-11-04T13:53:08.340Z,3060
2018-11-04T13:54:17.688Z,3008
2018-11-04T13:55:27.030Z,2988
2018-11-04T13:56:36.098Z,3008
2018-11-04T13:57:45.992Z,2992
2018-11-04T13:58:55.874Z,2924
2018-11-04T14:00:05.769Z,2876
2018-11-04T14:01:15.662Z,2812
2018-11-04T14:02:25.830Z,2688
2018-11-04T14:03:35.445Z,2680
2018-11-04T14:04:45.335Z,2640
2018-11-04T14:05:54.950Z,2572
2018-11-04T14:07:04.307Z,2560
2018-11-04T14:08:14.473Z,2548
2018-11-04T14:09:23.263Z,2544
2018-11-04T14:10:32.879Z,2512
2018-11-04T14:11:42.503Z,2532
2018-11-04T14:12:52.811Z,2568
2018-11-04T14:14:02.479Z,2564
2018-11-04T14:15:11.827Z,2580
2018-11-04T14:16:21.448Z,2636
2018-11-04T14:17:31.615Z,2620
2018-11-04T14:18:41.514Z,2564
2018-11-04T14:19:50.864Z,2532
2018-11-04T14:21:00.478Z,2552
2018-11-04T14:22:10.371Z,2528
2018-11-04T14:23:19.722Z,2488
2018-11-04T14:24:29.341Z,2388
2018-11-04T14:25:38.685Z,2340
2018-11-04T14:26:48.865Z,2308
2018-11-04T14:27:59.029Z,2268
2018-11-04T14:29:08.648Z,2224
2018-11-04T14:30:18.836Z,2244
2018-11-04T14:31:29.018Z,2268
2018-11-04T14:32:38.928Z,2204
2018-11-04T14:33:48.558Z,2116
2018-11-04T14:34:58.170Z,2012
2018-11-04T14:36:08.066Z,1892
2018-11-04T14:37:18.241Z,1848
2018-11-04T14:38:27.861Z,1824
2018-11-04T14:39:37.759Z,1764
2018-11-04T14:40:47.100Z,1672
2018-11-04T14:41:56.994Z,1688
2018-11-04T14:43:06.615Z,1704
2018-11-04T14:44:16.232Z,1732
2018-11-04T14:45:25.898Z,1696
2018-11-04T14:46:36.115Z,1616
2018-11-04T14:47:46.002Z,1552
2018-11-04T14:48:55.086Z,1476
2018-11-04T14:50:04.429Z,1428
2018-11-04T14:51:14.048Z,1452
2018-11-04T14:52:23.985Z,1472
2018-11-04T14:53:33.881Z,1440
2018-11-04T14:54:43.229Z,1364
2018-11-04T14:55:52.308Z,1300
2018-11-04T14:57:02.211Z,1264
2018-11-04T14:58:11.980Z,1220
2018-11-04T14:59:21.668Z,1216
2018-11-04T15:00:31.841Z,1236
2018-11-04T15:01:42.366Z,1204
2018-11-04T15:02:52.686Z,1160
2018-11-04T15:04:02.626Z,1168
2018-11-04T15:05:12.249Z,1172
2018-11-04T15:06:22.136Z,1164
2018-11-04T15:07:32.398Z,1176
2018-11-04T15:08:42.206Z,1168
2018-11-04T15:09:52.095Z,1116
2018-11-04T15:11:01.891Z,1088
2018-11-04T15:12:11.580Z,1088
2018-11-04T15:13:21.473Z,1044
2018-11-04T15:14:31.099Z,968
2018-11-04T15:15:41.267Z,900
2018-11-04T15:16:50.911Z,840
2018-11-04T15:18:00.309Z,796
2018-11-04T15:19:10.852Z,768
2018-11-04T15:20:21.150Z,728
2018-11-04T15:21:31.036Z,688
2018-11-04T15:22:40.109Z,660
2018-11-04T15:23:50.010Z,624
2018-11-04T15:25:00.035Z,580
2018-11-04T15:26:09.663Z,548
2018-11-04T15:27:19.284Z,516
2018-11-04T15:28:29.185Z,492
2018-11-04T15:29:38.532Z,472
2018-11-04T15:30:48.154Z,448
2018-11-04T15:31:58.061Z,420
2018-11-04T15:33:07.688Z,404
2018-11-04T15:34:18.488Z,384
2018-11-04T15:35:28.104Z,356
2018-11-04T15:36:38.395Z,336
2018-11-04T15:37:48.372Z,324
2018-11-04T15:38:58.502Z,308
2018-11-04T15:40:08.629Z,280
2018-11-04T15:41:18.674Z,256
2018-11-04T15:42:28.910Z,236
2018-11-04T15:43:38.873Z,220
2018-11-04T15:44:48.830Z,196
2018-11-04T15:45:58.462Z,176
2018-11-04T15:47:07.751Z,156
2018-11-04T15:48:17.635Z,140
2018-11-04T15:49:27.604Z,128
2018-11-04T15:50:36.999Z,112
2018-11-04T15:51:46.621Z,104
2018-11-04T15:52:56.508Z,92
2018-11-04T15:54:06.404Z,84
2018-11-04T15:55:16.040Z,76
2018-11-04T15:56:25.963Z,68
2018-11-04T15:57:35.492Z,56
2018-11-04T15:58:45.738Z,48
2018-11-04T15:59:55.089Z,44
2018-11-04T16:01:04.429Z,36
2018-11-04T16:02:15.141Z,32
2018-11-04T16:03:24.586Z,24
2018-11-04T16:04:44.544Z,20
2018-11-04T16:05:54.954Z,20
2018-11-04T16:07:04.390Z,16
2018-11-04T16:08:14.540Z,12
2018-11-04T16:09:24.393Z,12
2018-11-04T16:10:34.221Z,8
2018-11-04T16:11:44.454Z,4